Time;durP1;ratioP1;P1;durP2;ratioP2;P2;SDS_P1;SDS_P2;PMS_P1;PMS_P2;Temp;Humidity;BMP_temperature;BMP_pressure;BME280_temperature;BME280_humidity;BME280_pressure;Samples;Min_cycle;Max_cycle;Signal;HPM_P1;HPM_P2
2021/06/29 00:00:26;;;;;;;1999.90;999.90;;;23.20;99.90;;;;;;5080976;28;20237;-83
2021/06/29 00:03:06;;;;;;;1999.90;999.90;;;23.20;99.90;;;;;;5080224;28;20408;-84
2021/06/29 00:05:34;;;;;;;1999.90;999.90;;;23.00;99.90;;;;;;5083451;28;20199;-85
2021/06/29 00:08:02;;;;;;;1999.90;999.90;;;22.80;99.90;;;;;;5081851;28;20460;-85
2021/06/29 00:10:28;;;;;;;1999.90;999.90;;;22.80;99.90;;;;;;5080810;28;20479;-85
2021/06/29 00:12:55;;;;;;;1999.90;999.90;;;22.80;99.90;;;;;;5079738;28;20445;-83
2021/06/29 00:15:23;;;;;;;1999.90;999.90;;;22.70;99.90;;;;;;5078537;28;20967;-83
2021/06/29 00:17:49;;;;;;;1999.90;999.90;;;22.80;99.90;;;;;;5080177;28;20925;-83
2021/06/29 00:20:15;;;;;;;1999.90;999.90;;;22.80;99.90;;;;;;5080051;28;20468;-83
2021/06/29 00:22:41;;;;;;;1999.90;999.90;;;22.80;99.90;;;;;;5080049;28;20516;-83
2021/06/29 00:25:08;;;;;;;1999.90;999.90;;;22.80;99.90;;;;;;5079852;28;20420;-82
2021/06/29 00:27:34;;;;;;;1999.90;999.90;;;22.70;99.90;;;;;;5078181;28;20528;-83
2021/06/29 00:30:00;;;;;;;1999.90;999.90;;;22.80;99.90;;;;;;5079428;28;20426;-83
2021/06/29 00:32:25;;;;;;;1999.90;999.90;;;22.70;99.90;;;;;;5061684;28;20172;-83
2021/06/29 00:34:51;;;;;;;1999.90;999.90;;;22.70;99.90;;;;;;5079368;28;20194;-83
2021/06/29 00:37:17;;;;;;;1999.90;999.90;;;22.70;99.90;;;;;;5080158;28;20160;-83
2021/06/29 00:39:42;;;;;;;1999.90;999.90;;;22.70;99.90;;;;;;5079748;28;20651;-83
2021/06/29 00:42:08;;;;;;;1999.90;999.90;;;22.70;99.90;;;;;;5079607;28;20570;-83
2021/06/29 00:44:34;;;;;;;1999.90;999.90;;;22.60;99.90;;;;;;5078242;28;20168;-83
2021/06/29 00:47:00;;;;;;;1999.90;999.90;;;22.60;99.90;;;;;;5079245;28;20416;-83
2021/06/29 00:49:25;;;;;;;1999.90;999.90;;;22.60;99.90;;;;;;5079620;28;20215;-83
2021/06/29 00:51:51;;;;;;;1999.90;999.90;;;22.50;99.90;;;;;;5079112;28;20168;-83
2021/06/29 00:54:17;;;;;;;1999.90;999.90;;;22.40;99.90;;;;;;5079273;28;20203;-83
2021/06/29 00:56:47;;;;;;;1999.90;999.90;;;22.40;99.90;;;;;;5079537;28;20398;-83
2021/06/29 00:59:13;;;;;;;1999.90;999.90;;;22.40;99.90;;;;;;5079143;28;20414;-83
2021/06/29 01:01:38;;;;;;;1999.90;999.90;;;22.40;99.90;;;;;;5079219;28;20822;-83
2021/06/29 01:04:06;;;;;;;1999.90;999.90;;;22.50;99.90;;;;;;5079014;28;20196;-82
2021/06/29 01:06:32;;;;;;;1999.90;999.90;;;22.50;99.90;;;;;;5079320;28;20164;-82
2021/06/29 01:08:57;;;;;;;1999.90;999.90;;;22.50;99.90;;;;;;5079174;28;20457;-83
2021/06/29 01:11:23;;;;;;;1999.90;999.90;;;22.50;99.90;;;;;;5079207;28;20406;-83
2021/06/29 01:13:49;;;;;;;1999.90;999.90;;;22.40;99.90;;;;;;5078763;28;20203;-83
2021/06/29 01:16:15;;;;;;;1999.90;999.90;;;22.50;99.90;;;;;;5077705;28;20172;-82
2021/06/29 01:18:43;;;;;;;1999.90;999.90;;;22.40;99.90;;;;;;5078084;28;20417;-83
2021/06/29 01:21:17;;;;;;;1999.90;999.90;;;22.40;99.90;;;;;;5078443;28;20456;-83
2021/06/29 01:23:47;;;;;;;1999.90;999.90;;;22.40;99.90;;;;;;5078276;28;20419;-83
2021/06/29 01:31:31;;;;;;;1999.90;999.90;;;22.30;99.90;;;;;;5078768;28;20482;-83
2021/06/29 01:33:57;;;;;;;1999.90;999.90;;;22.30;99.90;;;;;;5078437;28;20457;-83
2021/06/29 01:36:25;;;;;;;1999.90;999.90;;;22.30;99.90;;;;;;5078114;28;20816;-83
2021/06/29 01:38:54;;;;;;;1999.90;999.90;;;22.30;99.90;;;;;;5077605;28;20432;-83
2021/06/29 01:41:23;;;;;;;1999.90;999.90;;;22.30;99.90;;;;;;5060395;28;20759;-83
2021/06/29 01:46:19;;;;;;;1999.90;999.90;;;22.20;99.90;;;;;;5078348;28;20481;-83
2021/06/29 01:48:53;;;;;;;1999.90;999.90;;;22.20;99.90;;;;;;5179836;22;20972;-87
2021/06/29 01:51:21;;;;;;;1999.90;999.90;;;22.10;99.90;;;;;;5075220;28;20772;-87
2021/06/29 01:53:50;;;;;;;1999.90;999.90;;;22.00;99.90;;;;;;5093456;28;20429;-87
2021/06/29 01:56:17;;;;;;;1999.90;999.90;;;22.00;99.90;;;;;;5074983;28;20417;-87
2021/06/29 01:58:52;;;;;;;1999.90;999.90;;;22.00;99.90;;;;;;5093132;28;20467;-87
2021/06/29 02:01:18;;;;;;;1999.90;999.90;;;22.00;99.90;;;;;;5075196;28;20486;-87
2021/06/29 02:03:44;;;;;;;1999.90;999.90;;;22.00;99.90;;;;;;5075518;28;20406;-87
2021/06/29 02:06:10;;;;;;;1999.90;999.90;;;21.90;99.90;;;;;;5076167;28;20973;-87
2021/06/29 02:08:36;;;;;;;1999.90;999.90;;;21.90;99.90;;;;;;5091765;28;20406;-87
2021/06/29 02:11:02;;;;;;;1999.90;999.90;;;21.90;99.90;;;;;;5093546;28;20164;-87
2021/06/29 02:13:30;;;;;;;1999.90;999.90;;;21.90;99.90;;;;;;5093096;28;20187;-87
2021/06/29 02:15:57;;;;;;;1999.90;999.90;;;21.90;99.90;;;;;;5075973;28;20398;-87
2021/06/29 02:18:23;;;;;;;1999.90;999.90;;;21.90;99.90;;;;;;5093270;28;20398;-87
2021/06/29 02:20:49;;;;;;;1999.90;999.90;;;21.90;99.90;;;;;;5093154;28;20417;-87
2021/06/29 02:23:18;;;;;;;1999.90;999.90;;;21.90;99.90;;;;;;5093065;28;20441;-87
2021/06/29 02:25:44;;;;;;;1999.90;999.90;;;21.90;99.90;;;;;;5093640;28;20488;-87
2021/06/29 02:28:10;;;;;;;1999.90;999.90;;;21.80;99.90;;;;;;5092344;28;20509;-87
2021/06/29 02:30:40;;;;;;;1999.90;999.90;;;21.80;99.90;;;;;;5093130;28;20546;-87
2021/06/29 02:33:09;;;;;;;1999.90;999.90;;;21.80;99.90;;;;;;5093142;28;20761;-87
2021/06/29 02:35:36;;;;;;;1999.90;999.90;;;21.80;99.90;;;;;;5075553;28;20405;-87
2021/06/29 02:38:03;;;;;;;1999.90;999.90;;;21.80;99.90;;;;;;5092884;28;20397;-88
2021/06/29 02:40:29;;;;;;;1999.90;999.90;;;21.70;99.90;;;;;;5075035;28;20426;-88
2021/06/29 02:42:55;;;;;;;1999.90;999.90;;;21.70;99.90;;;;;;5075261;28;20420;-88
2021/06/29 02:45:24;;;;;;;1999.90;999.90;;;21.70;99.90;;;;;;5093196;28;20404;-88
2021/06/29 02:47:50;;;;;;;1999.90;999.90;;;21.60;99.90;;;;;;5091760;28;20170;-88
2021/06/29 02:50:17;;;;;;;1999.90;999.90;;;21.60;99.90;;;;;;5094472;28;21031;-88
2021/06/29 02:52:44;;;;;;;1999.90;999.90;;;21.60;99.90;;;;;;5096830;28;20202;-87
2021/06/29 02:55:12;;;;;;;1999.90;999.90;;;21.60;99.90;;;;;;5078982;28;20987;-87
2021/06/29 02:57:38;;;;;;;1999.90;999.90;;;21.60;99.90;;;;;;5078539;28;20459;-87
2021/06/29 03:00:07;;;;;;;1999.90;999.90;;;21.50;99.90;;;;;;5077953;28;20425;-87
2021/06/29 03:02:33;;;;;;;1999.90;999.90;;;21.50;99.90;;;;;;5078243;28;20420;-87
2021/06/29 03:04:59;;;;;;;1999.90;999.90;;;21.40;99.90;;;;;;5096360;28;20769;-87
2021/06/29 03:07:24;;;;;;;1999.90;999.90;;;21.40;99.90;;;;;;5078009;28;20493;-87
2021/06/29 03:09:53;;;;;;;1999.90;999.90;;;21.30;99.90;;;;;;5077903;28;20195;-88
2021/06/29 03:12:19;;;;;;;1999.90;999.90;;;21.30;99.90;;;;;;5095514;28;20171;-88
2021/06/29 03:14:44;;;;;;;1999.90;999.90;;;21.30;99.90;;;;;;5096414;28;20433;-88
2021/06/29 03:17:10;;;;;;;1999.90;999.90;;;21.40;99.90;;;;;;5095093;28;20159;-87
2021/06/29 03:19:41;;;;;;;1999.90;999.90;;;21.30;99.90;;;;;;5096134;28;20233;-87
2021/06/29 03:22:07;;;;;;;1999.90;999.90;;;21.30;99.90;;;;;;5096502;28;20156;-88
2021/06/29 03:24:33;;;;;;;1999.90;999.90;;;21.20;99.90;;;;;;5096307;28;20420;-88
2021/06/29 03:27:02;;;;;;;1999.90;999.90;;;21.20;99.90;;;;;;5095963;28;20598;-88
2021/06/29 03:29:28;;;;;;;1999.90;999.90;;;21.20;99.90;;;;;;5077786;28;20433;-88
2021/06/29 03:31:53;;;;;;;1999.90;999.90;;;21.20;99.90;;;;;;5094719;28;20409;-87
2021/06/29 03:34:22;;;;;;;1999.90;999.90;;;21.10;99.90;;;;;;5077790;28;20218;-87
2021/06/29 03:36:48;;;;;;;1999.90;999.90;;;21.10;99.90;;;;;;5095975;28;20160;-87
2021/06/29 03:39:20;;;;;;;1999.90;999.90;;;21.10;99.90;;;;;;5095671;28;20452;-88
2021/06/29 03:41:46;;;;;;;1999.90;999.90;;;21.10;99.90;;;;;;5095842;28;20155;-88
2021/06/29 03:44:12;;;;;;;1999.90;999.90;;;21.20;99.90;;;;;;5095461;28;20856;-88
2021/06/29 03:46:38;;;;;;;1999.90;999.90;;;21.10;99.90;;;;;;5094197;28;20201;-87
2021/06/29 03:49:04;;;;;;;1999.90;999.90;;;21.00;99.90;;;;;;5095418;28;20444;-88
2021/06/29 03:51:33;;;;;;;1999.90;999.90;;;21.00;99.90;;;;;;5094737;28;20174;-88
2021/06/29 03:53:59;;;;;;;1999.90;999.90;;;21.00;99.90;;;;;;5095177;28;20436;-87
2021/06/29 03:56:28;;;;;;;1999.90;999.90;;;21.00;99.90;;;;;;5095535;28;20429;-87
2021/06/29 03:58:59;;;;;;;1999.90;999.90;;;20.90;99.90;;;;;;5093861;28;20183;-88
2021/06/29 04:01:26;;;;;;;1999.90;999.90;;;20.90;99.90;;;;;;5077413;28;20402;-88
2021/06/29 04:03:55;;;;;;;1999.90;999.90;;;20.90;99.90;;;;;;5095408;28;20475;-88
2021/06/29 04:06:22;;;;;;;1999.90;999.90;;;21.00;99.90;;;;;;5095382;28;20404;-88
2021/06/29 04:08:48;;;;;;;1999.90;999.90;;;21.00;99.90;;;;;;5094820;28;20412;-88
2021/06/29 04:11:14;;;;;;;1999.90;999.90;;;21.00;99.90;;;;;;5076911;28;20416;-88
2021/06/29 04:13:40;;;;;;;1999.90;999.90;;;21.00;99.90;;;;;;5093902;28;20452;-88
2021/06/29 04:16:05;;;;;;;1999.90;999.90;;;21.10;99.90;;;;;;5094003;28;20197;-88
2021/06/29 04:18:31;;;;;;;1999.90;999.90;;;21.00;99.90;;;;;;5093668;28;20697;-88
2021/06/29 04:20:57;;;;;;;1999.90;999.90;;;21.00;99.90;;;;;;5076556;28;20177;-88
2021/06/29 04:23:23;;;;;;;1999.90;999.90;;;20.90;99.90;;;;;;5094549;28;20174;-87
2021/06/29 04:25:48;;;;;;;1999.90;999.90;;;20.90;99.90;;;;;;5093547;28;20550;-88
2021/06/29 04:28:14;;;;;;;1999.90;999.90;;;21.00;99.90;;;;;;5094714;28;20164;-88
2021/06/29 04:30:40;;;;;;;1999.90;999.90;;;21.00;99.90;;;;;;5093455;28;20201;-88
2021/06/29 04:33:06;;;;;;;1999.90;999.90;;;21.00;99.90;;;;;;5093033;28;20196;-88
2021/06/29 04:35:31;;;;;;;1999.90;999.90;;;21.00;99.90;;;;;;5092982;28;20209;-88
2021/06/29 04:38:00;;;;;;;1999.90;999.90;;;21.00;99.90;;;;;;5076099;28;20170;-88
2021/06/29 04:40:26;;;;;;;1999.90;999.90;;;21.10;99.90;;;;;;5094643;28;20178;-87
2021/06/29 04:42:52;;;;;;;1999.90;999.90;;;21.10;99.90;;;;;;5092822;28;20397;-88
2021/06/29 04:45:17;;;;;;;1999.90;999.90;;;21.10;99.90;;;;;;5076113;28;20413;-88
2021/06/29 04:47:49;;;;;;;1999.90;999.90;;;21.10;99.90;;;;;;5076233;28;20174;-88
2021/06/29 04:50:17;;;;;;;1999.90;999.90;;;21.10;99.90;;;;;;5092639;28;20282;-87
2021/06/29 04:52:44;;;;;;;1999.90;999.90;;;21.10;99.90;;;;;;5094271;28;20490;-87
2021/06/29 04:55:10;;;;;;;1999.90;999.90;;;21.20;99.90;;;;;;5075785;28;20770;-87
2021/06/29 04:57:36;;;;;;;1999.90;999.90;;;21.10;99.90;;;;;;5093968;28;20395;-88
2021/06/29 05:00:07;;;;;;;1999.90;999.90;;;21.10;99.90;;;;;;5092493;28;20421;-88
2021/06/29 05:02:41;;;;;;;1999.90;999.90;;;21.10;99.90;;;;;;5094107;28;20378;-88
2021/06/29 05:05:08;;;;;;;1999.90;999.90;;;21.10;99.90;;;;;;5094221;28;20437;-87
2021/06/29 05:07:50;;;;;;;1999.90;999.90;;;21.10;99.90;;;;;;5093688;28;20529;-88
2021/06/29 05:10:16;;;;;;;1999.90;999.90;;;21.10;99.90;;;;;;5093688;28;20829;-87
2021/06/29 05:12:42;;;;;;;1999.90;999.90;;;21.20;99.90;;;;;;5075180;28;20492;-87
2021/06/29 05:15:09;;;;;;;1999.90;999.90;;;21.30;99.90;;;;;;5092209;28;20492;-87
2021/06/29 05:17:35;;;;;;;1999.90;999.90;;;21.30;99.90;;;;;;5094029;28;20159;-88
2021/06/29 05:20:05;;;;;;;1999.90;999.90;;;21.30;99.90;;;;;;5076101;28;20496;-85
2021/06/29 05:22:31;;;;;;;1999.90;999.90;;;21.40;99.90;;;;;;5075566;28;20397;-86
2021/06/29 05:24:58;;;;;;;1999.90;999.90;;;21.40;99.90;;;;;;5093907;28;20409;-85
2021/06/29 05:27:24;;;;;;;1999.90;999.90;;;21.40;99.90;;;;;;5093727;28;20522;-86
2021/06/29 05:29:52;;;;;;;1999.90;999.90;;;21.40;99.90;;;;;;5093417;28;20413;-86
2021/06/29 05:32:18;;;;;;;1999.90;999.90;;;21.30;99.90;;;;;;5075781;28;20186;-86
2021/06/29 05:34:44;;;;;;;1999.90;999.90;;;21.40;99.90;;;;;;5093402;28;20444;-86
2021/06/29 05:37:10;;;;;;;1999.90;999.90;;;21.40;99.90;;;;;;5092122;28;20168;-84
2021/06/29 05:39:36;;;;;;;1999.90;999.90;;;21.50;99.90;;;;;;5093505;28;20198;-84
2021/06/29 05:42:04;;;;;;;1999.90;999.90;;;21.50;99.90;;;;;;5094259;28;20398;-84
2021/06/29 05:44:30;;;;;;;1999.90;999.90;;;21.60;99.90;;;;;;5093564;28;20204;-84
2021/06/29 05:46:56;;;;;;;1999.90;999.90;;;21.50;99.90;;;;;;5094079;28;20410;-84
2021/06/29 05:49:23;;;;;;;1999.90;999.90;;;21.50;99.90;;;;;;5076294;28;20222;-84
2021/06/29 05:51:48;;;;;;;1999.90;999.90;;;21.60;99.90;;;;;;5094929;28;20738;-84
2021/06/29 05:54:15;;;;;;;1999.90;999.90;;;21.60;99.90;;;;;;5094005;28;20440;-84
2021/06/29 05:56:41;;;;;;;1999.90;999.90;;;21.70;99.90;;;;;;5094214;28;20163;-84
2021/06/29 05:59:08;;;;;;;1999.90;999.90;;;21.70;99.90;;;;;;5094139;28;20479;-84
2021/06/29 06:01:34;;;;;;;1999.90;999.90;;;21.70;99.90;;;;;;5094915;28;20396;-84
2021/06/29 06:03:59;;;;;;;1999.90;999.90;;;21.60;99.90;;;;;;5095023;28;20893;-84
2021/06/29 06:06:25;;;;;;;1999.90;999.90;;;21.50;99.90;;;;;;5094611;28;20296;-84
2021/06/29 06:08:51;;;;;;;1999.90;999.90;;;21.60;99.90;;;;;;5094854;28;20167;-84
2021/06/29 06:11:19;;;;;;;1999.90;999.90;;;21.60;99.90;;;;;;5093863;28;20170;-84
2021/06/29 06:13:46;;;;;;;1999.90;999.90;;;21.60;99.90;;;;;;5094521;28;20739;-84
2021/06/29 06:16:11;;;;;;;1999.90;999.90;;;21.70;99.90;;;;;;5094617;28;20435;-84
2021/06/29 06:18:38;;;;;;;1999.90;999.90;;;21.70;99.90;;;;;;5092325;28;20397;-86
2021/06/29 06:21:05;;;;;;;1999.90;999.90;;;21.60;99.90;;;;;;5093033;28;20174;-87
2021/06/29 06:23:31;;;;;;;1999.90;999.90;;;21.70;99.90;;;;;;5093129;28;20407;-86
2021/06/29 06:25:56;;;;;;;1999.90;999.90;;;21.70;99.90;;;;;;5096395;28;20408;-84
2021/06/29 06:28:22;;;;;;;1999.90;999.90;;;21.60;99.90;;;;;;5097095;28;20244;-83
2021/06/29 06:30:48;;;;;;;1999.90;999.90;;;21.70;99.90;;;;;;5097939;28;20236;-83
2021/06/29 06:33:14;;;;;;;1999.90;999.90;;;21.80;99.90;;;;;;5098023;28;20213;-83
2021/06/29 06:35:40;;;;;;;1999.90;999.90;;;21.70;99.90;;;;;;5097730;28;20178;-84
2021/06/29 06:38:05;;;;;;;1999.90;999.90;;;21.60;99.90;;;;;;5098290;28;20393;-84
2021/06/29 06:40:31;;;;;;;1999.90;999.90;;;21.60;99.90;;;;;;5098196;28;20202;-84
2021/06/29 06:42:57;;;;;;;1999.90;999.90;;;21.60;99.90;;;;;;5097109;28;20329;-86
2021/06/29 06:45:24;;;;;;;1999.90;999.90;;;21.60;99.90;;;;;;5096928;28;20204;-86
2021/06/29 06:47:51;;;;;;;1999.90;999.90;;;21.70;99.90;;;;;;5096658;28;20393;-86
2021/06/29 06:50:17;;;;;;;1999.90;999.90;;;21.80;99.90;;;;;;5096444;28;20424;-86
2021/06/29 06:52:43;;;;;;;1999.90;999.90;;;21.70;99.90;;;;;;5096373;28;20397;-87
2021/06/29 06:55:09;;;;;;;1999.90;999.90;;;21.70;99.90;;;;;;5096552;28;20791;-86
2021/06/29 06:57:35;;;;;;;1999.90;999.90;;;21.80;99.90;;;;;;5078704;28;20950;-86
2021/06/29 07:00:01;;;;;;;1999.90;999.90;;;21.90;99.90;;;;;;5096690;28;20441;-87
2021/06/29 07:02:27;;;;;;;1999.90;999.90;;;21.90;99.90;;;;;;5096843;28;20738;-86
2021/06/29 07:04:58;;;;;;;1999.90;999.90;;;22.00;99.90;;;;;;5096242;28;20400;-86
2021/06/29 07:07:24;;;;;;;1999.90;999.90;;;22.00;99.90;;;;;;5095432;28;20170;-85
2021/06/29 07:09:50;;;;;;;1999.90;999.90;;;22.10;99.90;;;;;;5096201;28;20418;-86
2021/06/29 07:12:16;;;;;;;1999.90;999.90;;;22.10;99.90;;;;;;5096529;28;20205;-86
2021/06/29 07:14:44;;;;;;;1999.90;999.90;;;22.00;99.90;;;;;;5094746;28;20187;-86
2021/06/29 07:17:09;;;;;;;1999.90;999.90;;;21.90;99.90;;;;;;5096129;28;20170;-86
2021/06/29 07:19:35;;;;;;;1999.90;999.90;;;21.90;99.90;;;;;;5096326;28;20417;-86
2021/06/29 07:22:01;;;;;;;1999.90;999.90;;;21.90;99.90;;;;;;5096005;28;20178;-85
2021/06/29 07:24:29;;;;;;;1999.90;999.90;;;21.90;99.90;;;;;;5095939;28;20170;-85
2021/06/29 07:26:55;;;;;;;1999.90;999.90;;;21.90;99.90;;;;;;5095795;28;20246;-85
2021/06/29 07:29:21;;;;;;;1999.90;999.90;;;21.90;99.90;;;;;;5096142;28;20449;-86
2021/06/29 07:31:47;;;;;;;1999.90;999.90;;;21.90;99.90;;;;;;5078368;28;20623;-86
2021/06/29 07:34:15;;;;;;;1999.90;999.90;;;21.90;99.90;;;;;;5094560;28;20199;-87
2021/06/29 07:36:41;;;;;;;1999.90;999.90;;;22.00;99.90;;;;;;5077414;28;20406;-85
2021/06/29 07:39:07;;;;;;;1999.90;999.90;;;22.00;99.90;;;;;;5095580;28;20468;-87
2021/06/29 07:41:33;;;;;;;1999.90;999.90;;;22.00;99.90;;;;;;5077796;28;20174;-86
2021/06/29 07:43:58;;;;;;;1999.90;999.90;;;22.00;99.90;;;;;;5095836;28;20163;-86
2021/06/29 07:46:27;;;;;;;1999.90;999.90;;;22.00;99.90;;;;;;5094167;28;20639;-87
2021/06/29 07:48:53;;;;;;;1999.90;999.90;;;22.00;99.90;;;;;;5076609;28;20271;-87
2021/06/29 07:51:22;;;;;;;1999.90;999.90;;;22.00;99.90;;;;;;5078123;28;20500;-86
2021/06/29 07:53:47;;;;;;;1999.90;999.90;;;21.90;99.90;;;;;;5094055;28;20448;-86
2021/06/29 07:56:17;;;;;;;1999.90;999.90;;;22.00;99.90;;;;;;5095524;28;20401;-86
2021/06/29 07:58:45;;;;;;;1999.90;999.90;;;22.00;99.90;;;;;;5095249;28;20185;-87
2021/06/29 08:01:15;;;;;;;1999.90;999.90;;;22.10;99.90;;;;;;5077166;28;20405;-87
2021/06/29 08:03:41;;;;;;;1999.90;999.90;;;22.10;99.90;;;;;;5095002;28;20429;-86
2021/06/29 08:06:07;;;;;;;1999.90;999.90;;;22.10;99.90;;;;;;5094965;28;20397;-86
2021/06/29 08:08:33;;;;;;;1999.90;999.90;;;22.10;99.90;;;;;;5077202;28;20842;-86
2021/06/29 08:11:07;;;;;;;1999.90;999.90;;;22.10;99.90;;;;;;5094919;28;20429;-87
2021/06/29 08:13:34;;;;;;;1999.90;999.90;;;22.10;99.90;;;;;;5094772;28;20530;-86
2021/06/29 08:16:00;;;;;;;1999.90;999.90;;;22.20;99.90;;;;;;5194436;22;20864;-86
2021/06/29 08:18:28;;;;;;;1999.90;999.90;;;22.20;99.90;;;;;;5102021;28;20397;-87
2021/06/29 08:20:55;;;;;;;1999.90;999.90;;;22.10;99.90;;;;;;5082837;28;20441;-86
2021/06/29 08:23:21;;;;;;;1999.90;999.90;;;22.20;99.90;;;;;;5080501;28;20409;-84
2021/06/29 08:25:52;;;;;;;1999.90;999.90;;;22.20;99.90;;;;;;5099474;28;20402;-86
2021/06/29 08:28:18;;;;;;;1999.90;999.90;;;22.30;99.90;;;;;;5098246;28;20393;-84
2021/06/29 08:30:45;;;;;;;1999.90;999.90;;;22.20;99.90;;;;;;5079923;28;20434;-84
2021/06/29 08:33:12;;;;;;;1999.90;999.90;;;22.30;99.90;;;;;;5079617;28;20449;-84
2021/06/29 08:35:44;;;;;;;1999.90;999.90;;;22.40;99.90;;;;;;5096652;28;20444;-84
2021/06/29 08:38:14;;;;;;;1999.90;999.90;;;22.30;99.90;;;;;;5097897;28;20404;-83
2021/06/29 08:40:44;;;;;;;1999.90;999.90;;;22.30;99.90;;;;;;5097726;28;20496;-85
2021/06/29 08:43:32;;;;;;;1999.90;999.90;;;22.30;99.90;;;;;;5079897;28;20807;-83
2021/06/29 08:46:06;;;;;;;1999.90;999.90;;;22.30;99.90;;;;;;5097644;28;20386;-83
2021/06/29 08:48:38;;;;;;;1999.90;999.90;;;22.40;99.90;;;;;;5095852;28;20419;-82
2021/06/29 08:51:39;;;;;;;1999.90;999.90;;;22.60;99.90;;;;;;5097600;28;20384;-83
2021/06/29 08:54:16;;;;;;;1999.90;999.90;;;22.70;99.90;;;;;;5078488;28;20449;-83
2021/06/29 08:56:58;;;;;;;1999.90;999.90;;;22.90;99.90;;;;;;5079419;28;20940;-83
2021/06/29 09:00:15;;;;;;;1999.90;999.90;;;23.10;99.90;;;;;;5078847;28;20450;-83
2021/06/29 09:03:18;;;;;;;1999.90;999.90;;;23.20;99.90;;;;;;5078539;28;20401;-83
2021/06/29 09:06:05;;;;;;;1999.90;999.90;;;23.40;99.90;;;;;;5096446;28;20491;-83
2021/06/29 09:09:20;;;;;;;1999.90;999.90;;;23.60;99.90;;;;;;5093528;28;20406;-83
2021/06/29 09:11:50;;;;;;;1999.90;999.90;;;23.70;99.90;;;;;;5062651;28;20746;-83
2021/06/29 09:14:38;;;;;;;1999.90;999.90;;;23.80;99.90;;;;;;5077995;28;20535;-83
2021/06/29 09:17:28;;;;;;;1999.90;999.90;;;24.00;99.90;;;;;;5078898;28;20516;-83
2021/06/29 09:19:59;;;;;;;1999.90;999.90;;;24.20;99.90;;;;;;5077597;28;20426;-82
2021/06/29 09:22:50;;;;;;;1999.90;999.90;;;24.20;99.90;;;;;;5096402;28;20884;-83
2021/06/29 09:25:29;;;;;;;1999.90;999.90;;;24.20;99.90;;;;;;5077756;28;20416;-81
2021/06/29 09:28:25;;;;;;;1999.90;999.90;;;24.30;99.90;;;;;;5078877;28;20935;-83
2021/06/29 09:30:53;;;;;;;1999.90;999.90;;;24.40;99.90;;;;;;5092938;28;20797;-82
2021/06/29 09:33:41;;;;;;;1999.90;999.90;;;24.40;99.90;;;;;;5096406;28;20453;-83
2021/06/29 09:36:15;;;;;;;1999.90;999.90;;;24.40;99.90;;;;;;5078298;28;20940;-83
2021/06/29 09:38:57;;;;;;;1999.90;999.90;;;24.50;99.90;;;;;;5077691;28;20409;-83
2021/06/29 09:41:28;;;;;;;1999.90;999.90;;;24.50;99.90;;;;;;5077957;28;20401;-83
2021/06/29 09:43:59;;;;;;;1999.90;999.90;;;24.50;99.90;;;;;;5079072;28;20414;-82
2021/06/29 09:46:57;;;;;;;1999.90;999.90;;;24.70;99.90;;;;;;5096709;28;20381;-83
2021/06/29 09:49:29;;;;;;;1999.90;999.90;;;24.80;99.90;;;;;;5096642;28;20437;-82
2021/06/29 09:52:03;;;;;;;1999.90;999.90;;;24.80;99.90;;;;;;5095878;28;20470;-83
2021/06/29 09:54:35;;;;;;;1999.90;999.90;;;24.90;99.90;;;;;;5096082;28;20440;-83
2021/06/29 09:57:22;;;;;;;1999.90;999.90;;;25.00;99.90;;;;;;5078360;28;20425;-83
2021/06/29 09:59:51;;;;;;;1999.90;999.90;;;25.20;99.90;;;;;;5078431;28;20471;-82
2021/06/29 10:05:44;;;;;;;1999.90;999.90;;;25.30;99.90;;;;;;5099625;28;20447;-83
2021/06/29 10:08:15;;;;;;;1999.90;999.90;;;25.30;99.90;;;;;;5081180;28;20406;-82
2021/06/29 10:10:44;;;;;;;1999.90;999.90;;;25.40;99.90;;;;;;5098176;28;20426;-82
2021/06/29 10:13:17;;;;;;;1999.90;999.90;;;25.60;99.90;;;;;;5098362;28;20555;-82
2021/06/29 10:15:46;;;;;;;1999.90;999.90;;;25.70;99.90;;;;;;5099808;28;20495;-82
2021/06/29 10:18:12;;;;;;;1999.90;999.90;;;25.70;99.90;;;;;;5099997;28;20415;-82
2021/06/29 10:20:52;;;;;;;1999.90;999.90;;;25.80;96.50;;;;;;5099493;28;20425;-83
2021/06/29 10:23:19;;;;;;;1999.90;999.90;;;25.90;95.90;;;;;;5098883;28;20568;-81
2021/06/29 10:25:45;;;;;;;1999.90;999.90;;;25.70;96.00;;;;;;5099485;28;20549;-82
2021/06/29 10:28:18;;;;;;;1999.90;999.90;;;25.60;94.80;;;;;;5098704;28;20507;-82
2021/06/29 10:30:45;;;;;;;1999.90;999.90;;;25.60;96.50;;;;;;5099111;28;20433;-82
2021/06/29 10:33:17;;;;;;;1999.90;999.90;;;25.80;98.10;;;;;;5099663;28;20455;-82
2021/06/29 10:35:43;;;;;;;1999.90;999.90;;;26.20;98.50;;;;;;5099090;28;20408;-81
2021/06/29 10:38:10;;;;;;;1999.90;999.90;;;26.20;93.90;;;;;;5099153;28;20401;-82
2021/06/29 10:40:36;;;;;;;1999.90;999.90;;;26.20;91.40;;;;;;5099505;28;20208;-81
2021/06/29 10:43:02;;;;;;;1999.90;999.90;;;26.10;90.00;;;;;;5098592;28;20405;-81
2021/06/29 10:45:36;;;;;;;1999.90;999.90;;;26.20;94.90;;;;;;5098856;28;20397;-82
2021/06/29 10:48:18;;;;;;;1999.90;999.90;;;26.60;92.50;;;;;;5099175;28;20892;-82
2021/06/29 10:50:44;;;;;;;1999.90;999.90;;;26.90;86.30;;;;;;5099292;28;20784;-82
2021/06/29 10:53:38;;;;;;;1999.90;999.90;;;27.30;90.10;;;;;;5098822;28;20502;-82
2021/06/29 10:56:08;;;;;;;1999.90;999.90;;;27.60;72.30;;;;;;5097980;28;20932;-82
2021/06/29 10:58:36;;;;;;;1999.90;999.90;;;27.80;59.00;;;;;;5080408;28;20402;-82
2021/06/29 11:01:33;;;;;;;1999.90;999.90;;;27.80;47.80;;;;;;5098678;28;20947;-82
2021/06/29 11:04:01;;;;;;;1999.90;999.90;;;27.70;48.40;;;;;;5098842;28;20401;-82
2021/06/29 11:06:56;;;;;;;1999.90;999.90;;;27.50;45.70;;;;;;5099254;28;20430;-82
2021/06/29 11:09:24;;;;;;;1999.90;999.90;;;27.20;39.90;;;;;;5096547;28;21017;-83
2021/06/29 11:12:25;;;;;;;1999.90;999.90;;;27.10;45.90;;;;;;5098366;28;20419;-82
2021/06/29 11:14:53;;;;;;;1999.90;999.90;;;26.90;44.40;;;;;;5099444;28;20469;-82
2021/06/29 11:17:22;;;;;;;1999.90;999.90;;;26.90;46.00;;;;;;5098717;28;20429;-81
2021/06/29 11:20:05;;;;;;;1999.90;999.90;;;27.30;55.80;;;;;;5098531;28;20431;-82
2021/06/29 11:23:00;;;;;;;1999.90;999.90;;;27.70;48.70;;;;;;5080031;28;20415;-82
2021/06/29 11:25:36;;;;;;;1999.90;999.90;;;28.10;34.50;;;;;;5095113;28;20445;-81
2021/06/29 11:28:04;;;;;;;1999.90;999.90;;;28.20;24.00;;;;;;5098534;28;20768;-82
2021/06/29 11:31:05;;;;;;;1999.90;999.90;;;28.20;25.20;;;;;;5097813;28;20428;-82
2021/06/29 11:33:45;;;;;;;1999.90;999.90;;;28.50;22.40;;;;;;5072994;28;20472;-81
2021/06/29 11:36:23;;;;;;;1999.90;999.90;;;28.60;22.50;;;;;;5098029;28;20382;-81
2021/06/29 11:38:50;;;;;;;1999.90;999.90;;;28.90;18.50;;;;;;5098203;28;20431;-82
2021/06/29 11:41:25;;;;;;;1999.90;999.90;;;29.00;16.20;;;;;;5098292;28;20500;-80
2021/06/29 11:43:54;;;;;;;1999.90;999.90;;;29.10;13.60;;;;;;5096484;28;20428;-81
2021/06/29 11:46:52;;;;;;;1999.90;999.90;;;29.30;13.70;;;;;;5097703;28;20402;-81
2021/06/29 11:49:38;;;;;;;1999.90;999.90;;;29.40;12.70;;;;;;5096501;28;20432;-81
2021/06/29 11:52:17;;;;;;;1999.90;999.90;;;29.10;13.60;;;;;;5079805;28;20413;-82
2021/06/29 11:54:54;;;;;;;1999.90;999.90;;;28.70;14.70;;;;;;5096728;28;20480;-81
2021/06/29 11:57:21;;;;;;;1999.90;999.90;;;28.40;14.40;;;;;;5097632;28;20397;-82
2021/06/29 11:59:48;;;;;;;1999.90;999.90;;;28.20;15.00;;;;;;5097812;28;20516;-80
2021/06/29 12:02:18;;;;;;;1999.90;999.90;;;28.10;17.30;;;;;;5099097;28;20398;-80
2021/06/29 12:05:02;;;;;;;1999.90;999.90;;;27.90;14.20;;;;;;5097756;28;20406;-81
2021/06/29 12:07:40;;;;;;;1999.90;999.90;;;27.80;17.40;;;;;;5079843;28;20488;-80
2021/06/29 12:10:11;;;;;;;1999.90;999.90;;;27.60;21.60;;;;;;5098056;28;20566;-80
2021/06/29 12:12:39;;;;;;;1999.90;999.90;;;27.50;27.00;;;;;;5096567;28;20417;-79
2021/06/29 12:15:10;;;;;;;1999.90;999.90;;;27.70;25.80;;;;;;5096219;28;20921;-81
2021/06/29 12:17:37;;;;;;;1999.90;999.90;;;27.80;22.60;;;;;;5097967;28;20394;-82
2021/06/29 12:20:10;;;;;;;1999.90;999.90;;;27.90;23.00;;;;;;5097671;28;20421;-79
2021/06/29 12:22:40;;;;;;;1999.90;999.90;;;28.10;19.50;;;;;;5097678;28;20398;-81